Time;durP1;ratioP1;P1;durP2;ratioP2;P2;SDS_P1;SDS_P2;PMS_P1;PMS_P2;Temp;Humidity;BMP_temperature;BMP_pressure;BME280_temperature;BME280_humidity;BME280_pressure;Samples;Min_cycle;Max_cycle;Signal;HPM_P1;HPM_P2
2022/03/16 00:01:59;;;;;;;54.13;32.80;;;7.60;99.90;;;;;;5024487;28;20313;-78
2022/03/16 00:04:27;;;;;;;54.17;34.97;;;7.70;99.90;;;;;;5029966;28;20207;-81
2022/03/16 00:06:54;;;;;;;58.17;32.55;;;7.60;99.90;;;;;;5037861;28;20207;-82
2022/03/16 00:09:21;;;;;;;60.53;33.83;;;7.60;99.90;;;;;;5029046;28;20635;-78
2022/03/16 00:11:48;;;;;;;58.05;34.17;;;7.50;99.90;;;;;;5016160;28;20235;-79
2022/03/16 00:14:15;;;;;;;59.15;34.75;;;7.50;99.90;;;;;;5017286;28;20214;-79
2022/03/16 00:16:41;;;;;;;62.85;36.35;;;7.50;99.90;;;;;;5022313;28;20230;-79
2022/03/16 00:19:08;;;;;;;57.95;34.80;;;7.50;99.90;;;;;;5031492;28;20250;-79
2022/03/16 00:21:36;;;;;;;65.00;35.05;;;7.50;99.90;;;;;;5016033;28;20210;-79
2022/03/16 00:24:03;;;;;;;62.83;33.90;;;7.40;99.90;;;;;;5024487;28;20242;-79
2022/03/16 00:26:30;;;;;;;63.33;36.08;;;7.40;99.90;;;;;;5027559;28;20222;-79
2022/03/16 00:28:57;;;;;;;62.95;35.28;;;7.40;99.90;;;;;;5019109;28;20354;-78
2022/03/16 00:31:24;;;;;;;60.85;35.53;;;7.30;99.90;;;;;;5018189;28;20638;-80
2022/03/16 00:33:51;;;;;;;56.17;33.78;;;7.30;99.90;;;;;;5015514;28;20673;-78
2022/03/16 00:36:21;;;;;;;63.83;35.63;;;7.40;99.90;;;;;;5014728;28;20237;-79
2022/03/16 00:38:49;;;;;;;63.85;33.60;;;7.40;99.90;;;;;;5016510;28;20269;-79
2022/03/16 00:41:17;;;;;;;65.28;36.70;;;7.40;99.90;;;;;;5018309;28;20206;-79
2022/03/16 00:43:44;;;;;;;70.00;36.78;;;7.50;99.90;;;;;;5021217;28;20291;-78
2022/03/16 00:46:11;;;;;;;71.28;36.72;;;7.40;99.90;;;;;;5018663;28;20238;-77
2022/03/16 00:48:38;;;;;;;71.32;37.67;;;7.30;99.90;;;;;;5021871;28;20231;-79
2022/03/16 00:51:05;;;;;;;68.38;38.25;;;7.30;99.90;;;;;;5034666;28;20211;-79
2022/03/16 00:53:34;;;;;;;81.45;39.67;;;7.30;99.90;;;;;;5034453;28;20615;-79
2022/03/16 00:56:03;;;;;;;73.13;39.00;;;7.30;99.90;;;;;;5030549;28;20221;-78
2022/03/16 00:58:30;;;;;;;73.55;37.88;;;7.30;99.90;;;;;;5034518;28;20520;-79
2022/03/16 01:00:58;;;;;;;80.50;39.95;;;7.40;99.90;;;;;;5034725;28;20678;-78
2022/03/16 01:03:25;;;;;;;71.18;38.15;;;7.40;99.90;;;;;;5034330;28;20210;-78
2022/03/16 01:05:52;;;;;;;69.15;36.78;;;7.40;99.90;;;;;;5034524;28;20659;-79
2022/03/16 01:08:19;;;;;;;70.90;37.63;;;7.40;99.90;;;;;;5034907;28;20226;-79
2022/03/16 01:10:46;;;;;;;74.57;35.63;;;7.40;99.90;;;;;;5020127;28;20290;-78
2022/03/16 01:13:15;;;;;;;74.82;39.38;;;7.50;99.90;;;;;;5016859;28;20265;-79
2022/03/16 01:15:41;;;;;;;74.97;37.00;;;7.40;99.90;;;;;;5019259;28;20238;-78
2022/03/16 01:18:09;;;;;;;71.32;38.78;;;7.30;99.90;;;;;;5021224;28;20203;-79
2022/03/16 01:20:36;;;;;;;78.45;37.75;;;7.40;99.90;;;;;;5028335;28;20229;-78
2022/03/16 01:23:03;;;;;;;69.38;37.33;;;7.50;99.90;;;;;;5021650;28;20226;-78
2022/03/16 01:25:30;;;;;;;73.78;38.40;;;7.50;99.90;;;;;;5024723;28;20231;-78
2022/03/16 01:27:57;;;;;;;68.35;36.63;;;7.50;99.90;;;;;;5029655;28;20222;-78
2022/03/16 01:30:25;;;;;;;69.00;37.80;;;7.50;99.90;;;;;;5035266;28;20240;-79
2022/03/16 01:32:52;;;;;;;71.50;39.38;;;7.50;99.90;;;;;;5036426;28;20242;-82
2022/03/16 01:35:19;;;;;;;76.00;40.35;;;7.60;99.90;;;;;;5039270;28;20756;-80
2022/03/16 01:37:46;;;;;;;66.45;37.38;;;7.60;99.90;;;;;;5034253;28;20230;-80
2022/03/16 01:40:13;;;;;;;81.20;39.20;;;7.50;99.90;;;;;;5021767;28;20206;-78
2022/03/16 01:42:41;;;;;;;82.07;38.72;;;7.50;99.90;;;;;;5018438;28;20293;-77
2022/03/16 01:45:09;;;;;;;75.60;38.17;;;7.40;99.90;;;;;;5020127;28;20321;-78
2022/03/16 01:47:37;;;;;;;80.18;39.17;;;7.40;99.90;;;;;;5019968;28;20256;-79
2022/03/16 01:50:08;;;;;;;71.45;37.63;;;7.50;99.90;;;;;;5031583;28;20615;-77
2022/03/16 01:52:35;;;;;;;73.75;38.15;;;7.50;99.90;;;;;;5039094;28;20211;-79
2022/03/16 01:55:05;;;;;;;87.97;39.17;;;7.50;99.90;;;;;;5038890;28;20230;-80
2022/03/16 01:57:33;;;;;;;78.85;37.25;;;7.50;99.90;;;;;;5041413;28;20237;-80
2022/03/16 02:00:01;;;;;;;80.90;40.25;;;7.50;99.90;;;;;;5040732;28;20252;-81
2022/03/16 02:02:27;;;;;;;86.45;39.65;;;7.50;99.90;;;;;;5039578;28;20301;-79
2022/03/16 02:04:56;;;;;;;80.43;37.60;;;7.50;99.90;;;;;;5034200;28;20254;-78
2022/03/16 02:07:23;;;;;;;91.72;39.90;;;7.50;99.90;;;;;;5037348;28;20268;-79
2022/03/16 02:09:51;;;;;;;84.22;39.95;;;7.40;99.90;;;;;;5039726;28;20219;-78
2022/03/16 02:12:18;;;;;;;85.00;40.53;;;7.40;99.90;;;;;;5037431;28;20741;-78
2022/03/16 02:14:45;;;;;;;88.80;41.05;;;7.40;99.90;;;;;;5037233;28;20255;-79
2022/03/16 02:17:12;;;;;;;88.15;42.00;;;7.40;99.90;;;;;;5035398;28;20701;-79
2022/03/16 02:19:39;;;;;;;86.70;41.28;;;7.40;99.90;;;;;;5027970;28;20702;-80
2022/03/16 02:22:14;;;;;;;90.47;39.58;;;7.40;99.90;;;;;;5016827;28;20218;-79
2022/03/16 02:24:43;;;;;;;85.05;40.55;;;7.40;99.90;;;;;;5017179;28;20200;-78
2022/03/16 02:27:09;;;;;;;90.80;39.25;;;7.30;99.90;;;;;;5016933;28;20210;-80
2022/03/16 02:29:37;;;;;;;91.20;39.55;;;7.30;99.90;;;;;;5022387;28;20238;-79
2022/03/16 02:32:04;;;;;;;91.35;41.17;;;7.30;99.90;;;;;;5036753;28;20214;-79
2022/03/16 02:34:31;;;;;;;100.90;42.85;;;7.30;99.90;;;;;;5036522;28;20559;-78
2022/03/16 02:36:58;;;;;;;104.40;46.33;;;7.20;99.90;;;;;;5040085;28;20210;-80
2022/03/16 02:39:25;;;;;;;104.85;45.53;;;7.20;99.90;;;;;;5033915;28;20298;-81
2022/03/16 02:41:53;;;;;;;99.32;41.22;;;7.20;99.90;;;;;;5020309;28;20211;-80
2022/03/16 02:44:20;;;;;;;97.15;43.95;;;7.20;99.90;;;;;;5029178;28;20225;-80
2022/03/16 02:46:47;;;;;;;91.70;41.80;;;7.20;99.90;;;;;;5025734;28;20250;-80
2022/03/16 02:49:14;;;;;;;95.45;42.08;;;7.20;99.90;;;;;;5023883;28;20570;-80
2022/03/16 02:51:41;;;;;;;109.38;41.90;;;7.20;99.90;;;;;;5042286;28;20237;-82
2022/03/16 02:54:08;;;;;;;97.53;40.42;;;7.10;99.90;;;;;;5044402;28;20273;-81
2022/03/16 02:56:35;;;;;;;102.90;43.58;;;7.20;99.90;;;;;;5046334;28;20230;-81
2022/03/16 02:59:04;;;;;;;103.13;42.25;;;7.20;99.90;;;;;;5042359;28;20206;-81
2022/03/16 03:01:31;;;;;;;106.07;41.75;;;7.20;99.90;;;;;;5052534;28;20201;-80
2022/03/16 03:03:58;;;;;;;110.28;43.40;;;7.20;99.90;;;;;;5055004;28;20202;-80
2022/03/16 03:06:24;;;;;;;107.75;44.53;;;7.20;99.90;;;;;;5047768;28;20229;-81
2022/03/16 03:08:51;;;;;;;121.22;43.85;;;7.20;99.90;;;;;;5041421;28;20763;-82
2022/03/16 03:11:18;;;;;;;108.00;41.78;;;7.20;99.90;;;;;;5036952;28;20250;-82
2022/03/16 03:13:48;;;;;;;112.32;42.10;;;7.20;99.90;;;;;;5036745;28;20274;-81
2022/03/16 03:16:16;;;;;;;98.65;42.15;;;7.20;99.90;;;;;;5038972;28;20208;-82
2022/03/16 03:18:43;;;;;;;113.45;42.60;;;7.20;99.90;;;;;;5036845;28;20206;-81
2022/03/16 03:21:10;;;;;;;110.93;40.47;;;7.20;99.90;;;;;;5040613;28;20197;-82
2022/03/16 03:23:37;;;;;;;104.05;41.38;;;7.10;99.90;;;;;;5034022;28;20274;-81
2022/03/16 03:26:03;;;;;;;110.07;43.40;;;7.20;99.90;;;;;;5027689;28;20233;-81
2022/03/16 03:28:31;;;;;;;123.35;43.47;;;7.20;99.90;;;;;;5021324;28;20257;-81
2022/03/16 03:30:57;;;;;;;109.20;42.88;;;7.20;99.90;;;;;;5020582;28;20213;-81
2022/03/16 03:33:26;;;;;;;113.68;41.20;;;7.20;99.90;;;;;;5021764;28;20679;-80
2022/03/16 03:35:53;;;;;;;108.70;42.85;;;7.20;99.90;;;;;;5028029;28;20328;-80
2022/03/16 03:38:19;;;;;;;105.30;39.92;;;7.20;99.90;;;;;;5021644;28;20298;-80
2022/03/16 03:40:46;;;;;;;115.90;40.00;;;7.20;99.90;;;;;;5029015;28;20214;-80
2022/03/16 03:43:13;;;;;;;108.00;40.00;;;7.20;99.90;;;;;;5041371;28;20570;-81
2022/03/16 03:45:40;;;;;;;111.57;40.88;;;7.20;99.90;;;;;;5046303;28;20573;-80
2022/03/16 03:48:07;;;;;;;115.47;38.60;;;7.20;99.90;;;;;;5049842;28;20262;-81
2022/03/16 03:50:36;;;;;;;101.60;40.90;;;7.20;99.90;;;;;;5026477;28;20207;-80
2022/03/16 03:53:03;;;;;;;98.95;39.28;;;7.20;99.90;;;;;;5021449;28;20218;-80
2022/03/16 03:55:29;;;;;;;111.35;40.65;;;7.20;99.90;;;;;;5017720;28;20780;-80
2022/03/16 03:57:57;;;;;;;112.97;38.83;;;7.20;99.90;;;;;;5025416;28;20271;-80
2022/03/16 04:00:25;;;;;;;105.65;41.35;;;7.20;99.90;;;;;;5033371;28;20194;-81
2022/03/16 04:02:52;;;;;;;120.82;41.92;;;7.20;99.90;;;;;;5023834;28;20265;-81
2022/03/16 04:05:20;;;;;;;110.05;40.90;;;7.20;99.90;;;;;;5021916;28;20778;-81
2022/03/16 04:07:49;;;;;;;103.68;39.80;;;7.10;99.90;;;;;;5019289;28;20211;-80
2022/03/16 04:10:16;;;;;;;104.50;39.05;;;7.10;99.90;;;;;;5030831;28;20319;-81
2022/03/16 04:12:43;;;;;;;103.88;38.78;;;7.20;99.90;;;;;;5040847;28;20264;-81
2022/03/16 04:15:11;;;;;;;109.50;41.15;;;7.10;99.90;;;;;;5045542;28;20229;-80
2022/03/16 04:17:38;;;;;;;114.22;40.03;;;7.20;99.90;;;;;;5050351;28;20201;-81
2022/03/16 04:20:07;;;;;;;95.60;38.28;;;7.20;99.90;;;;;;5037742;28;20669;-81
2022/03/16 04:22:35;;;;;;;111.60;40.95;;;7.20;99.90;;;;;;5049704;28;20213;-80
2022/03/16 04:25:03;;;;;;;93.35;36.60;;;7.20;99.90;;;;;;5051730;28;20234;-81
2022/03/16 04:27:30;;;;;;;107.05;39.45;;;7.20;99.90;;;;;;5035117;28;20209;-80
2022/03/16 04:29:58;;;;;;;107.10;41.33;;;7.20;99.90;;;;;;5020928;28;20230;-80
2022/03/16 04:32:25;;;;;;;101.03;38.30;;;7.10;99.90;;;;;;5019420;28;20221;-81
2022/03/16 04:34:51;;;;;;;116.35;43.33;;;7.10;99.90;;;;;;5020719;28;20756;-81
2022/03/16 04:37:18;;;;;;;91.72;39.65;;;7.10;99.90;;;;;;5019556;28;20276;-81
2022/03/16 04:39:45;;;;;;;92.05;38.25;;;7.10;99.90;;;;;;5026272;28;20274;-81
2022/03/16 04:42:14;;;;;;;96.43;39.08;;;7.10;99.90;;;;;;5034072;28;20207;-80
2022/03/16 04:44:40;;;;;;;92.07;39.30;;;7.20;99.90;;;;;;5040125;28;20217;-81
2022/03/16 04:47:08;;;;;;;96.13;39.78;;;7.20;99.90;;;;;;5050717;28;20216;-80
2022/03/16 04:49:34;;;;;;;101.13;38.83;;;7.20;99.90;;;;;;5050032;28;20233;-81
2022/03/16 04:52:01;;;;;;;91.85;36.70;;;7.20;99.90;;;;;;5050634;28;20202;-82
2022/03/16 04:54:29;;;;;;;104.30;38.88;;;7.20;99.90;;;;;;5054798;28;20206;-81
2022/03/16 04:56:56;;;;;;;87.10;36.85;;;7.20;99.90;;;;;;5054417;28;20210;-80
2022/03/16 04:59:24;;;;;;;94.40;38.40;;;7.20;99.90;;;;;;5053939;28;20195;-80
2022/03/16 05:01:51;;;;;;;90.45;36.83;;;7.20;99.90;;;;;;5054055;28;20210;-82
2022/03/16 05:04:18;;;;;;;87.80;37.83;;;7.10;99.90;;;;;;5051394;28;20272;-80
2022/03/16 05:06:45;;;;;;;80.60;37.08;;;7.20;99.90;;;;;;5046382;28;20326;-79
2022/03/16 05:09:12;;;;;;;79.05;36.00;;;7.20;99.90;;;;;;5051652;28;20252;-79
2022/03/16 05:11:40;;;;;;;87.00;36.65;;;7.20;99.90;;;;;;5049846;28;20301;-81
2022/03/16 05:14:07;;;;;;;82.15;36.78;;;7.20;99.90;;;;;;5050285;28;20218;-81
2022/03/16 05:16:36;;;;;;;80.75;33.90;;;7.20;99.90;;;;;;5045465;28;20226;-81
2022/03/16 05:19:03;;;;;;;74.13;35.55;;;7.30;99.90;;;;;;5049972;28;20292;-81
2022/03/16 05:21:29;;;;;;;82.82;36.83;;;7.30;99.90;;;;;;5045816;28;20218;-80
2022/03/16 05:23:56;;;;;;;81.13;36.20;;;7.30;99.90;;;;;;5037596;28;20748;-80
2022/03/16 05:26:23;;;;;;;82.13;36.55;;;7.30;99.90;;;;;;5053498;28;20297;-80
2022/03/16 05:28:52;;;;;;;74.55;33.47;;;7.30;99.90;;;;;;5048882;28;20249;-80
2022/03/16 05:31:19;;;;;;;74.40;35.80;;;7.30;99.90;;;;;;5054095;28;20252;-79
2022/03/16 05:33:48;;;;;;;65.25;34.50;;;7.20;99.90;;;;;;5056209;28;20289;-79
2022/03/16 05:37:11;;;;;;;62.88;33.58;;;7.30;99.90;;;;;;5139622;27;20543;-77
2022/03/16 05:39:38;;;;;;;59.53;29.70;;;7.30;99.90;;;;;;5149215;27;20223;-78
2022/03/16 05:42:06;;;;;;;59.50;32.15;;;7.30;99.90;;;;;;5138160;27;20211;-78
2022/03/16 05:44:32;;;;;;;60.05;30.90;;;7.30;99.90;;;;;;5132471;27;20208;-78
2022/03/16 05:46:59;;;;;;;56.15;31.38;;;7.30;99.90;;;;;;5132835;27;20206;-78
2022/03/16 05:49:28;;;;;;;55.20;30.55;;;7.20;99.90;;;;;;5133364;27;20211;-78
2022/03/16 05:51:55;;;;;;;58.85;29.63;;;7.20;99.90;;;;;;5133056;27;20293;-78
2022/03/16 05:54:23;;;;;;;53.60;31.50;;;7.20;99.90;;;;;;5134010;27;20208;-78
2022/03/16 05:56:50;;;;;;;60.53;31.45;;;7.10;99.90;;;;;;5137742;27;20225;-78
2022/03/16 05:59:17;;;;;;;55.80;30.13;;;7.10;99.90;;;;;;5136446;27;20271;-79
2022/03/16 06:01:43;;;;;;;51.60;31.10;;;7.20;99.90;;;;;;5135704;27;20299;-78
2022/03/16 06:04:10;;;;;;;53.83;29.15;;;7.20;99.90;;;;;;5134099;27;20666;-78
2022/03/16 06:06:37;;;;;;;51.90;30.58;;;7.10;99.90;;;;;;5134703;27;20221;-78
2022/03/16 06:09:04;;;;;;;56.75;29.98;;;7.10;99.90;;;;;;5135119;27;20210;-78
2022/03/16 06:11:33;;;;;;;49.72;28.33;;;7.10;99.90;;;;;;5133789;27;20231;-78
2022/03/16 06:14:00;;;;;;;52.30;29.95;;;7.10;99.90;;;;;;5134168;27;20203;-78
2022/03/16 06:16:27;;;;;;;48.40;28.27;;;7.10;99.90;;;;;;5134993;27;20674;-78
2022/03/16 06:18:54;;;;;;;47.00;27.30;;;7.20;99.90;;;;;;5135591;27;20214;-78
2022/03/16 06:21:20;;;;;;;51.95;30.00;;;7.20;99.90;;;;;;5142436;27;20234;-78
2022/03/16 06:23:47;;;;;;;47.72;28.83;;;7.10;99.90;;;;;;5150925;27;20210;-78
2022/03/16 06:26:14;;;;;;;56.80;30.02;;;7.10;99.90;;;;;;5139966;27;20684;-78
2022/03/16 06:28:43;;;;;;;50.75;29.27;;;7.10;99.90;;;;;;5148257;27;20213;-78
2022/03/16 06:31:09;;;;;;;47.22;28.55;;;7.10;99.90;;;;;;5149567;27;20625;-78
2022/03/16 06:33:36;;;;;;;55.70;30.15;;;7.10;99.90;;;;;;5140245;27;20229;-78
2022/03/16 06:36:04;;;;;;;49.55;27.67;;;7.10;99.90;;;;;;5134736;27;20338;-79
2022/03/16 06:38:30;;;;;;;49.88;30.05;;;7.10;99.90;;;;;;5135417;27;20242;-79
2022/03/16 06:40:57;;;;;;;48.08;27.20;;;7.10;99.90;;;;;;5144564;27;20267;-78
2022/03/16 06:43:24;;;;;;;50.30;28.83;;;7.20;99.90;;;;;;5151596;27;20254;-78
2022/03/16 06:45:52;;;;;;;55.25;30.40;;;7.30;99.90;;;;;;5150321;27;20739;-78
2022/03/16 06:48:22;;;;;;;49.80;28.92;;;7.30;99.90;;;;;;5137773;27;20241;-77
2022/03/16 06:50:49;;;;;;;47.63;27.88;;;7.30;99.90;;;;;;5124808;28;20208;-78
2022/03/16 06:53:17;;;;;;;48.70;28.50;;;7.30;99.90;;;;;;5118040;28;20242;-78
2022/03/16 06:55:44;;;;;;;45.40;27.48;;;7.30;99.90;;;;;;5118175;28;20772;-78
2022/03/16 06:58:11;;;;;;;55.63;28.42;;;7.40;99.90;;;;;;5118697;27;20223;-78
2022/03/16 07:00:38;;;;;;;49.05;28.85;;;7.50;99.90;;;;;;5119844;28;20218;-78
2022/03/16 07:03:07;;;;;;;52.47;29.10;;;7.50;99.90;;;;;;5120683;28;20235;-79
2022/03/16 07:05:35;;;;;;;47.40;27.90;;;7.50;99.90;;;;;;5127632;27;20332;-78
2022/03/16 07:08:03;;;;;;;44.58;27.10;;;7.50;99.90;;;;;;5122718;27;20302;-78
2022/03/16 07:10:32;;;;;;;46.00;27.20;;;7.70;99.90;;;;;;5119148;28;20303;-78
2022/03/16 07:13:00;;;;;;;50.15;29.25;;;7.70;99.90;;;;;;5117695;28;20296;-78
2022/03/16 07:15:27;;;;;;;48.72;27.95;;;7.70;99.90;;;;;;5117226;28;20725;-78
2022/03/16 07:17:54;;;;;;;45.45;26.85;;;7.80;99.90;;;;;;5118191;28;20200;-78
2022/03/16 07:20:22;;;;;;;50.28;29.98;;;7.80;99.90;;;;;;5118570;27;20298;-78
2022/03/16 07:23:02;;;;;;;47.63;28.70;;;7.80;99.90;;;;;;5117536;28;20670;-78
2022/03/16 07:25:33;;;;;;;45.40;28.70;;;7.70;99.90;;;;;;5120686;28;20613;-78
2022/03/16 07:28:00;;;;;;;52.55;29.17;;;7.80;99.90;;;;;;5124372;28;20199;-77
2022/03/16 07:30:27;;;;;;;49.63;28.40;;;8.00;99.90;;;;;;5125928;28;20209;-78
2022/03/16 07:32:54;;;;;;;48.15;27.73;;;8.10;99.90;;;;;;5129900;28;20392;-77
2022/03/16 07:35:26;;;;;;;44.65;27.98;;;8.10;99.90;;;;;;5130210;28;20236;-77
2022/03/16 07:37:54;;;;;;;47.08;26.30;;;8.30;99.90;;;;;;5128829;28;20799;-77
2022/03/16 07:40:21;;;;;;;44.38;25.90;;;8.30;99.30;;;;;;5133784;28;20258;-78
2022/03/16 07:42:50;;;;;;;43.90;25.58;;;8.40;98.50;;;;;;5138712;28;20256;-78
2022/03/16 07:45:18;;;;;;;46.97;27.05;;;8.40;97.70;;;;;;5139759;28;20237;-78
2022/03/16 07:47:46;;;;;;;40.53;25.58;;;8.40;97.20;;;;;;5138965;27;20242;-79
2022/03/16 07:50:13;;;;;;;46.30;27.02;;;8.30;96.80;;;;;;5138624;28;20636;-78
2022/03/16 07:52:41;;;;;;;39.60;25.88;;;8.20;98.10;;;;;;5139178;28;20192;-78
2022/03/16 07:55:09;;;;;;;48.03;27.05;;;8.30;98.90;;;;;;5139499;28;20228;-78
2022/03/16 07:57:36;;;;;;;45.22;27.55;;;8.30;98.20;;;;;;5139154;28;20247;-78
2022/03/16 08:00:04;;;;;;;44.17;27.10;;;8.30;98.70;;;;;;5137291;28;20224;-78
2022/03/16 08:02:31;;;;;;;39.40;26.30;;;8.40;97.90;;;;;;5138309;28;20200;-79
2022/03/16 08:05:00;;;;;;;41.30;26.10;;;8.30;99.30;;;;;;5138497;28;20288;-78
2022/03/16 08:07:27;;;;;;;47.00;27.30;;;8.50;98.30;;;;;;5136507;28;20209;-76
2022/03/16 08:09:55;;;;;;;45.97;29.15;;;8.40;98.60;;;;;;5126624;28;20212;-78
2022/03/16 08:12:22;;;;;;;50.67;27.27;;;8.40;99.00;;;;;;5128519;28;20264;-77
2022/03/16 08:14:50;;;;;;;49.58;29.77;;;8.40;99.90;;;;;;5133802;28;20225;-78
2022/03/16 08:17:17;;;;;;;44.17;28.63;;;8.50;99.90;;;;;;5126956;28;20255;-77
2022/03/16 08:19:44;;;;;;;56.83;29.92;;;8.60;99.00;;;;;;5119340;28;20292;-77
2022/03/16 08:22:11;;;;;;;49.53;26.50;;;8.70;99.10;;;;;;5119751;28;20208;-78
2022/03/16 08:24:38;;;;;;;53.35;29.98;;;8.70;98.40;;;;;;5119014;28;20201;-77
2022/03/16 08:27:07;;;;;;;50.75;28.95;;;8.80;97.80;;;;;;5120140;28;20238;-77
2022/03/16 08:29:34;;;;;;;52.10;29.42;;;8.80;98.20;;;;;;5117846;28;20242;-78
2022/03/16 08:32:03;;;;;;;47.58;28.30;;;9.00;96.00;;;;;;5117679;28;20215;-77
2022/03/16 08:34:30;;;;;;;49.22;28.98;;;9.20;96.10;;;;;;5117411;28;20207;-77
2022/03/16 08:36:58;;;;;;;49.53;27.92;;;9.00;95.30;;;;;;5117551;28;20228;-78
2022/03/16 08:39:25;;;;;;;48.45;27.70;;;9.20;95.00;;;;;;5115798;28;20208;-77
2022/03/16 08:41:52;;;;;;;46.88;28.48;;;9.30;94.70;;;;;;5115799;28;20204;-77
2022/03/16 08:44:22;;;;;;;52.78;29.00;;;9.30;93.30;;;;;;5115106;28;20239;-76
2022/03/16 08:46:50;;;;;;;59.05;30.00;;;9.40;93.90;;;;;;5117602;28;20618;-78
2022/03/16 08:49:17;;;;;;;51.35;28.80;;;9.30;92.90;;;;;;5114627;28;20687;-78
2022/03/16 08:51:44;;;;;;;54.80;28.25;;;9.10;94.90;;;;;;5116537;28;20213;-79
2022/03/16 08:54:11;;;;;;;55.60;28.67;;;9.10;94.80;;;;;;5116978;28;20577;-76
2022/03/16 08:56:38;;;;;;;49.10;27.95;;;9.20;94.40;;;;;;5115115;28;20322;-77
2022/03/16 08:59:04;;;;;;;51.20;28.88;;;9.30;94.70;;;;;;5116320;28;20240;-77
2022/03/16 09:01:33;;;;;;;57.80;29.27;;;9.40;93.90;;;;;;5117463;28;20300;-77
2022/03/16 09:04:01;;;;;;;53.25;28.48;;;9.30;93.90;;;;;;5119792;28;20207;-77
2022/03/16 09:06:28;;;;;;;50.72;29.25;;;9.40;93.90;;;;;;5120457;28;20224;-77
2022/03/16 09:08:55;;;;;;;47.72;28.60;;;9.70;92.40;;;;;;5116257;28;20208;-77
2022/03/16 09:11:22;;;;;;;48.13;28.33;;;9.60;91.30;;;;;;5114799;28;20208;-77
2022/03/16 09:13:49;;;;;;;53.65;30.23;;;9.70;91.40;;;;;;5116069;28;20204;-77
2022/03/16 09:16:16;;;;;;;51.50;29.75;;;9.70;89.50;;;;;;5116089;28;20234;-77
2022/03/16 09:18:44;;;;;;;51.42;29.42;;;9.50;91.10;;;;;;5116043;28;20236;-78
2022/03/16 09:21:11;;;;;;;55.97;28.77;;;9.40;91.90;;;;;;5117347;28;20257;-77
2022/03/16 09:23:38;;;;;;;57.25;29.38;;;9.60;91.60;;;;;;5117800;28;20232;-78
2022/03/16 09:26:05;;;;;;;49.20;27.52;;;9.80;89.70;;;;;;5119391;28;20860;-77
2022/03/16 09:28:33;;;;;;;48.08;27.15;;;9.80;90.20;;;;;;5121457;28;20268;-78
2022/03/16 09:31:00;;;;;;;46.75;28.52;;;9.80;89.60;;;;;;5130289;28;20204;-77
2022/03/16 09:33:30;;;;;;;48.15;27.67;;;9.90;88.60;;;;;;5134978;28;20215;-78
2022/03/16 09:36:00;;;;;;;47.50;26.27;;;9.90;87.90;;;;;;5135042;28;20315;-77
2022/03/16 09:38:26;;;;;;;48.38;28.17;;;9.90;88.70;;;;;;5132333;28;20204;-78
2022/03/16 09:40:56;;;;;;;45.75;26.63;;;9.80;89.60;;;;;;5133524;28;20204;-78
2022/03/16 09:43:24;;;;;;;44.53;24.58;;;10.10;87.60;;;;;;5130655;28;20683;-78
2022/03/16 09:45:55;;;;;;;45.92;27.00;;;10.20;83.70;;;;;;5116239;28;20225;-77
2022/03/16 09:48:23;;;;;;;42.10;26.00;;;10.20;81.90;;;;;;5115444;28;20296;-77
2022/03/16 09:50:51;;;;;;;39.33;24.58;;;10.20;82.80;;;;;;5114882;28;20209;-77
2022/03/16 09:53:20;;;;;;;43.53;26.75;;;10.30;83.50;;;;;;5116181;28;20303;-77
2022/03/16 09:55:47;;;;;;;44.08;25.55;;;10.50;82.00;;;;;;5117260;28;20228;-77
2022/03/16 09:58:14;;;;;;;44.15;26.42;;;10.50;78.10;;;;;;5115748;28;20224;-78
2022/03/16 10:00:41;;;;;;;43.05;26.70;;;10.30;81.70;;;;;;5116913;28;20208;-78
2022/03/16 10:03:08;;;;;;;43.67;26.42;;;10.50;80.50;;;;;;5117890;28;20686;-79
2022/03/16 10:05:36;;;;;;;39.15;24.70;;;10.60;79.70;;;;;;5117098;28;20307;-77
2022/03/16 10:08:05;;;;;;;39.78;22.40;;;10.90;77.10;;;;;;5120459;28;20201;-77
2022/03/16 10:13:21;;;;;;;41.67;25.35;;;10.80;76.20;;;;;;5125482;28;20191;-78
2022/03/16 10:15:49;;;;;;;39.30;25.00;;;10.50;78.30;;;;;;5122645;28;20254;-77
2022/03/16 10:18:18;;;;;;;38.78;25.20;;;10.70;76.90;;;;;;5118989;28;20244;-79
2022/03/16 10:20:45;;;;;;;39.65;24.25;;;10.70;76.90;;;;;;5119173;28;20236;-78
2022/03/16 10:23:14;;;;;;;42.88;25.08;;;10.80;76.60;;;;;;5126758;28;20284;-78
2022/03/16 10:25:45;;;;;;;38.67;23.67;;;10.80;77.00;;;;;;5138063;28;20231;-77
2022/03/16 10:28:14;;;;;;;37.13;23.27;;;10.90;76.20;;;;;;5139641;28;20176;-78
2022/03/16 10:30:52;;;;;;;35.60;22.27;;;11.30;75.80;;;;;;5141082;28;20267;-77
2022/03/16 10:33:20;;;;;;;36.20;22.27;;;11.30;73.90;;;;;;5138897;28;20198;-80
2022/03/16 10:36:03;;;;;;;32.58;22.30;;;11.50;72.30;;;;;;5124632;28;20590;-78
2022/03/16 10:38:31;;;;;;;36.22;21.58;;;11.40;71.90;;;;;;5123432;28;20209;-77
2022/03/16 10:41:13;;;;;;;30.92;21.50;;;11.40;71.20;;;;;;5122375;27;20265;-77
2022/03/16 10:46:38;;;;;;;31.05;21.00;;;11.40;70.30;;;;;;5121258;28;20289;-77
2022/03/16 10:49:09;;;;;;;31.58;21.25;;;11.40;70.20;;;;;;5127893;28;20192;-76
2022/03/16 10:51:43;;;;;;;29.48;20.20;;;11.40;70.70;;;;;;5130516;28;20208;-78
2022/03/16 10:54:10;;;;;;;29.27;19.98;;;11.60;71.10;;;;;;5125922;28;20655;-77
2022/03/16 10:56:42;;;;;;;30.52;20.13;;;11.80;69.20;;;;;;5122383;27;20237;-77
2022/03/16 10:59:11;;;;;;;27.50;19.30;;;12.10;69.10;;;;;;5123501;27;20193;-78
2022/03/16 11:01:39;;;;;;;29.27;20.30;;;12.10;67.40;;;;;;5122165;28;20216;-77
2022/03/16 11:04:08;;;;;;;28.83;19.58;;;12.00;68.40;;;;;;5123564;28;20284;-77
2022/03/16 11:06:36;;;;;;;28.02;19.10;;;12.20;67.50;;;;;;5120689;28;20240;-77
2022/03/16 11:09:03;;;;;;;26.65;18.30;;;12.50;66.80;;;;;;5120465;28;20573;-78
2022/03/16 11:14:17;;;;;;;26.83;18.10;;;12.50;65.40;;;;;;5120401;28;20191;-77
2022/03/16 11:16:47;;;;;;;24.05;17.23;;;12.70;65.90;;;;;;5121246;28;20228;-79
2022/03/16 11:19:18;;;;;;;24.65;17.67;;;12.80;63.20;;;;;;5120702;28;20216;-79
2022/03/16 11:21:50;;;;;;;27.70;19.02;;;12.60;66.50;;;;;;5120250;28;20290;-78
2022/03/16 11:24:22;;;;;;;26.60;18.40;;;12.70;64.70;;;;;;5120546;28;20189;-79
2022/03/16 11:27:00;;;;;;;24.55;18.65;;;12.80;64.70;;;;;;5121379;28;20223;-77
2022/03/16 11:29:39;;;;;;;26.92;18.83;;;12.60;65.70;;;;;;5121035;28;20233;-77
2022/03/16 11:32:10;;;;;;;24.98;18.25;;;12.80;65.00;;;;;;5120741;28;20278;-79
2022/03/16 11:34:37;;;;;;;27.10;18.27;;;13.10;63.90;;;;;;5124933;28;20246;-77
2022/03/16 11:37:07;;;;;;;24.70;17.83;;;13.10;63.20;;;;;;5130574;28;20315;-78
2022/03/16 11:39:43;;;;;;;26.00;18.40;;;13.30;63.30;;;;;;5122871;28;20244;-77
2022/03/16 11:42:11;;;;;;;31.50;19.77;;;13.30;62.40;;;;;;5124035;28;20204;-77
2022/03/16 11:44:40;;;;;;;28.15;19.25;;;13.10;63.10;;;;;;5127123;28;20227;-79
2022/03/16 11:47:33;;;;;;;27.77;21.05;;;13.30;63.30;;;;;;5124617;28;20196;-78
2022/03/16 11:50:13;;;;;;;31.10;20.90;;;13.50;61.80;;;;;;5137020;28;20188;-77
2022/03/16 11:53:05;;;;;;;28.25;20.23;;;13.70;61.00;;;;;;5134915;28;20409;-77
2022/03/16 11:55:47;;;;;;;33.58;21.33;;;13.20;62.90;;;;;;5134429;28;20228;-77
2022/03/16 11:58:28;;;;;;;31.08;19.25;;;12.90;63.40;;;;;;5128203;28;20219;-79
2022/03/16 12:01:27;;;;;;;28.27;19.27;;;12.50;65.50;;;;;;5120978;28;20192;-77
2022/03/16 12:04:08;;;;;;;29.23;19.38;;;12.40;66.10;;;;;;5118993;28;20211;-76
2022/03/16 12:06:51;;;;;;;33.00;21.55;;;12.40;67.60;;;;;;5119026;28;20224;-77
2022/03/16 12:09:20;;;;;;;29.13;19.75;;;12.70;66.20;;;;;;5119161;28;20192;-77
2022/03/16 12:15:02;;;;;;;28.15;19.02;;;12.80;65.80;;;;;;5119695;28;20276;-78
2022/03/16 12:17:30;;;;;;;29.73;19.83;;;12.80;66.10;;;;;;5118268;28;20247;-77
2022/03/16 12:20:11;;;;;;;32.88;20.15;;;12.70;66.10;;;;;;5117840;28;20211;-77
2022/03/16 12:22:46;;;;;;;28.50;19.48;;;12.80;65.10;;;;;;5117595;28;20210;-77
2022/03/16 12:25:39;;;;;;;28.10;18.60;;;12.60;66.60;;;;;;5117938;28;20230;-76
2022/03/16 12:31:02;;;;;;;26.08;17.30;;;12.70;66.00;;;;;;5086452;28;20190;-77
2022/03/16 12:33:32;;;;;;;28.42;19.52;;;13.40;65.60;;;;;;5124323;28;20192;-77
2022/03/16 12:36:02;;;;;;;26.88;18.08;;;13.30;61.70;;;;;;5125967;28;20232;-79
2022/03/16 12:38:30;;;;;;;29.70;18.70;;;13.00;64.10;;;;;;5132624;28;20259;-77
2022/03/16 12:43:44;;;;;;;27.02;18.10;;;12.80;65.00;;;;;;5127886;28;20187;-77
2022/03/16 12:46:20;;;;;;;29.23;19.13;;;12.90;64.00;;;;;;5134978;28;20257;-77
2022/03/16 12:48:53;;;;;;;27.00;18.20;;;13.20;63.80;;;;;;5125760;28;20682;-78
2022/03/16 12:51:34;;;;;;;30.33;18.75;;;13.40;62.80;;;;;;5134312;28;20405;-77
2022/03/16 12:54:01;;;;;;;27.98;17.65;;;13.60;61.90;;;;;;5135421;28;20248;-77
2022/03/16 12:56:28;;;;;;;31.88;19.92;;;13.40;61.80;;;;;;5123893;28;20229;-77
2022/03/16 12:58:55;;;;;;;24.92;18.65;;;13.50;61.80;;;;;;5121066;28;20263;-82